Latest Weather Observations for Minlaton Airport

IDS60801

Issued at 3:05 pm CST Thursday 24 April 2014 (issued every 30 minutes, with the page automatically refreshed every 10 minutes)

About weather observations | Map of weather stations | Latest weather observations for SA | Other Formats
Station Details ID: 022031 Name: MINLATON AERO Lat: -34.75 Lon: 137.53 Height: 32.0 m
Data from the previous 72 hours. | See also: Recent months at Minlaton Airport
Date/Time
CST
Temp
°C
App
Temp
°C
Dew
Point
Rel
Hum
%
Delta-T
°C
Wind Press
QNH
hPa
Press
MSL
hPa
Rain
since 9 am
mm
Dir
 
Spd
km/h
Gust
km/h
Spd
kts
Gust
kts
24/03:00pm 19.7 15.5 8.4 48 5.9 SSE 20 28 11 15 1017.8 1017.8 0.2
24/02:30pm 19.8 15.4 8.8 49 5.8 S 22 35 12 19 1017.7 - 0.2
24/02:00pm 20.6 16.0 9.8 50 5.8 SSE 24 30 13 16 1017.7 - 0.2
24/01:30pm 19.3 14.7 9.8 54 5.1 SSE 24 32 13 17 1018.0 - 0.2
24/01:00pm 19.7 15.6 10.1 54 5.2 SSE 22 35 12 19 1018.1 - 0.2
24/12:30pm 19.7 15.6 10.1 54 5.2 S 22 30 12 16 1018.5 - 0.0
24/12:00pm 19.8 15.9 12.1 61 4.3 SSE 24 30 13 16 1018.8 1018.8 0.0
24/11:30am 18.1 13.6 11.4 65 3.7 SSE 26 33 14 18 1018.9 - 0.0
24/11:00am 19.2 14.8 12.9 67 3.6 SSE 28 35 15 19 1018.9 - 0.0
24/10:30am 17.6 12.7 12.5 72 2.8 S 30 35 16 19 1018.9 - 0.0
24/10:00am 16.5 11.5 13.4 82 1.7 S 32 37 17 20 1018.8 - 0.0
24/09:30am 17.6 13.1 13.9 79 2.1 SSE 30 35 16 19 1018.7 - 0.0
24/09:00am 17.0 13.4 14.3 84 1.5 SSE 26 32 14 17 1018.6 1018.6 1.4
24/08:30am 15.8 14.3 14.3 91 0.9 S 15 19 8 10 1018.6 - 1.4
24/08:00am 14.8 12.8 14.0 95 0.5 S 17 20 9 11 1018.1 - 1.4
24/07:30am 13.4 11.8 12.8 96 0.3 S 13 15 7 8 1017.5 - 1.4
24/07:00am 12.6 11.1 11.8 95 0.4 S 11 13 6 7 1017.1 - 1.4
24/06:30am 14.1 12.3 13.3 95 0.4 S 15 17 8 9 1016.8 - 1.4
24/06:00am 14.6 12.6 13.8 95 0.4 SSW 17 20 9 11 1016.5 1016.4 1.4
24/05:30am 15.2 12.8 13.9 92 0.7 SW 19 22 10 12 1016.1 - 1.4
24/05:00am 15.6 10.8 14.6 94 0.6 SW 33 39 18 21 1015.9 - 1.0
24/04:30am 16.9 14.1 14.2 84 1.5 W 22 28 12 15 1015.4 - 0.0
24/04:00am 16.9 13.9 13.8 82 1.8 W 22 30 12 16 1015.3 - 0.0
24/03:30am 16.1 12.9 13.2 83 1.6 W 22 26 12 14 1015.3 - 0.0
24/03:00am 15.9 13.0 13.0 83 1.6 W 20 24 11 13 1015.3 1015.2 0.0
24/02:30am 16.4 12.8 13.1 81 1.8 W 24 30 13 16 1015.3 - 0.0
24/02:00am 16.7 12.3 13.0 79 2.1 W 28 35 15 19 1015.4 - 0.0
24/01:30am 16.7 12.6 12.7 77 2.2 W 26 37 14 20 1015.5 - 0.0
24/01:00am 17.0 13.5 13.5 80 2.0 W 24 30 13 16 1015.5 - 0.0
24/12:30am 16.8 14.6 14.3 85 1.4 W 19 22 10 12 1015.5 - 0.0
24/12:00am 16.6 13.3 14.1 85 1.4 WSW 24 33 13 18 1015.6 1015.5 0.0
 
Date/Time
CST
Temp
°C
App
Temp
°C
Dew
Point
Rel
Hum
%
Delta-T
°C
Wind Press
QNH
hPa
Press
MSL
hPa
Rain
since 9 am
mm
Dir
 
Spd
km/h
Gust
km/h
Spd
kts
Gust
kts
23/11:30pm 17.0 12.0 13.3 79 2.1 W 32 39 17 21 1015.6 - 0.0
23/11:00pm 17.7 12.7 13.4 76 2.4 W 32 37 17 20 1015.6 - 0.0
23/10:30pm 17.7 13.3 13.0 74 2.6 W 28 33 15 18 1015.7 - 0.0
23/10:00pm 17.3 13.9 13.6 79 2.1 W 24 30 13 16 1015.7 - 0.0
23/09:30pm 13.3 10.7 10.8 85 1.3 NNW 15 17 8 9 1015.8 - 0.0
23/09:00pm 13.8 11.7 11.3 85 1.3 N 13 15 7 8 1015.6 1015.5 0.0
23/08:30pm 13.3 11.5 10.7 84 1.4 N 11 13 6 7 1015.4 - 0.0
23/08:00pm 14.0 11.0 10.8 81 1.7 N 17 17 9 9 1015.1 - 0.0
23/07:30pm 14.9 12.1 11.5 80 1.8 N 17 19 9 10 1015.1 - 0.0
23/07:00pm 13.9 10.9 10.7 81 1.7 NNE 17 17 9 9 1015.0 - 0.0
23/06:30pm 14.1 11.4 10.5 79 1.9 N 15 15 8 8 1015.1 - 0.0
23/06:00pm 14.9 12.6 10.3 74 2.4 NNW 13 15 7 8 1014.9 1014.8 0.0
23/05:30pm 17.0 13.8 11.3 69 3.1 NW 19 20 10 11 1014.7 - 0.0
23/05:00pm 17.9 14.8 11.7 67 3.4 NW 19 26 10 14 1014.7 - 0.0
23/04:30pm 18.6 15.4 11.9 65 3.7 NW 20 24 11 13 1014.6 - 0.0
23/04:00pm 18.7 15.1 12.0 65 3.7 NW 22 28 12 15 1014.8 - 0.0
23/03:30pm 18.2 14.8 11.3 64 3.8 NW 20 24 11 13 1014.6 - 0.0
23/03:00pm 19.1 15.8 11.7 62 4.1 NNW 20 28 11 15 1014.5 1014.4 0.0
23/02:30pm 18.8 16.5 11.6 63 4.0 NNW 15 24 8 13 1014.7 - 0.0
23/02:00pm 18.7 15.9 11.3 62 4.0 NW 17 24 9 13 1015.1 - 0.0
23/01:30pm 18.7 15.8 11.0 61 4.2 WNW 17 24 9 13 1015.5 - 0.0
23/01:00pm 18.6 16.2 11.4 63 3.9 WNW 15 24 8 13 1015.9 - 0.0
23/12:30pm 19.1 16.9 10.9 59 4.5 WNW 13 20 7 11 1016.5 - 0.0
23/12:00pm 18.7 16.6 11.0 61 4.2 W 13 24 7 13 1017.1 1017.1 0.0
23/11:30am 18.0 15.4 10.6 62 4.0 WNW 15 20 8 11 1017.6 - 0.0
23/11:00am 18.0 16.1 10.6 62 4.0 NW 11 19 6 10 1017.9 - 0.0
23/10:30am 17.6 15.1 9.8 60 4.1 WNW 13 17 7 9 1018.2 - 0.0
23/10:00am 17.5 14.8 8.9 57 4.5 NW 13 22 7 12 1018.2 - 0.0
23/09:30am 17.0 15.1 9.2 60 4.1 N 9 15 5 8 1018.4 - 0.0
23/09:00am 15.6 13.4 10.8 73 2.5 N 13 15 7 8 1018.5 1018.5 0.0
23/08:30am 13.5 11.7 10.9 84 1.4 NNE 11 15 6 8 1018.4 - 0.0
23/08:00am 11.8 9.1 10.2 90 0.8 ENE 15 17 8 9 1018.1 - 0.0
23/07:30am 9.9 6.8 9.0 94 0.4 ENE 15 17 8 9 1017.4 - 0.0
23/07:00am 9.5 6.1 9.2 98 0.1 ENE 17 17 9 9 1017.2 - 0.0
23/06:30am 8.4 5.5 8.0 97 0.2 ENE 13 20 7 11 1017.3 - 0.0
23/06:00am 8.2 5.6 7.8 97 0.2 E 11 13 6 7 1017.3 1017.3 0.0
23/05:30am 8.7 5.5 8.3 97 0.2 E 15 15 8 8 1017.3 - 0.0
23/05:00am 8.0 4.5 7.4 96 0.3 E 15 20 8 11 1017.1 - 0.0
23/04:30am 7.9 4.4 7.1 95 0.4 E 15 19 8 10 1017.1 - 0.0
23/04:00am 8.0 5.6 7.2 95 0.4 E 9 11 5 6 1017.3 - 0.0
23/03:30am 8.1 6.1 7.0 93 0.5 ESE 7 9 4 5 1017.5 - 0.0
23/03:00am 8.8 5.8 7.6 92 0.6 E 13 15 7 8 1017.7 1017.7 0.0
23/02:30am 9.8 7.0 8.4 91 0.7 E 13 15 7 8 1017.8 - 0.0
23/02:00am 9.2 6.2 7.6 90 0.8 ESE 13 15 7 8 1018.1 - 0.0
23/01:30am 9.7 6.8 8.0 89 0.8 ESE 13 15 7 8 1018.2 - 0.0
23/01:00am 9.5 6.9 7.8 89 0.8 SE 11 13 6 7 1018.5 - 0.0
23/12:30am 10.2 8.0 7.8 85 1.2 SSE 9 11 5 6 1018.7 - 0.0
23/12:00am 11.3 9.6 8.2 81 1.5 S 7 11 4 6 1018.8 1018.8 0.0
 
Date/Time
CST
Temp
°C
App
Temp
°C
Dew
Point
Rel
Hum
%
Delta-T
°C
Wind Press
QNH
hPa
Press
MSL
hPa
Rain
since 9 am
mm
Dir
 
Spd
km/h
Gust
km/h
Spd
kts
Gust
kts
22/11:30pm 12.7 9.3 9.3 80 1.7 SE 17 17 9 9 1018.9 - 0.0
22/11:00pm 13.1 9.8 9.5 79 1.8 SE 17 19 9 10 1019.1 - 0.0
22/10:30pm 12.1 8.4 9.5 84 1.3 SE 19 19 10 10 1019.3 - 0.0
22/10:00pm 11.7 8.5 8.6 81 1.5 SE 15 15 8 8 1019.4 - 0.0
22/09:30pm 12.8 10.1 8.9 77 2.0 SE 13 15 7 8 1019.3 - 0.0
22/09:00pm 13.5 12.0 9.0 74 2.3 SE 7 9 4 5 1019.0 1019.0 0.0
22/08:30pm 14.1 11.8 9.1 72 2.5 SSE 11 15 6 8 1019.1 - 0.0
22/08:00pm 14.9 11.9 9.1 68 3.0 S 15 17 8 9 1019.2 - 0.0
22/07:30pm 15.3 12.6 9.0 66 3.2 SSE 13 17 7 9 1019.3 - 0.0
22/07:00pm 15.2 12.4 8.4 64 3.4 SSE 13 15 7 8 1018.9 - 0.0
22/06:30pm 15.8 12.2 8.5 62 3.7 SE 17 20 9 11 1018.3 - 0.0
22/06:00pm 16.1 12.8 8.1 59 4.0 SSE 15 17 8 9 1018.3 1018.3 0.0
22/05:30pm 16.9 13.1 7.5 54 4.7 S 17 20 9 11 1018.1 - 0.0
22/05:00pm 17.5 13.2 7.0 50 5.2 S 19 24 10 13 1017.8 - 0.0
22/04:30pm 19.1 14.2 6.9 45 6.1 S 22 30 12 16 1017.7 - 0.0
22/04:00pm 19.0 14.0 6.5 44 6.2 SSW 22 28 12 15 1017.5 - 0.0
22/03:30pm 19.7 14.7 6.4 42 6.7 S 22 30 12 16 1017.5 - 0.0
22/03:00pm 19.7 14.5 5.7 40 6.9 SSW 22 32 12 17 1017.3 1017.3 0.0
22/02:30pm 21.1 15.5 5.5 36 7.7 SSW 24 33 13 18 1017.2 - 0.0
22/02:00pm 20.0 15.1 7.1 43 6.6 SSW 22 33 12 18 1017.2 - 0.0
22/01:30pm 20.2 15.0 7.2 43 6.6 SW 24 33 13 18 1017.2 - 0.0
22/01:00pm 19.9 15.2 7.6 45 6.3 SSW 22 32 12 17 1017.4 - 0.0
22/12:30pm 18.9 14.6 7.7 48 5.7 S 20 32 11 17 1017.7 - 0.0
22/12:00pm 19.8 15.3 8.5 48 5.9 SSW 22 32 12 17 1017.9 1017.9 0.0
22/11:30am 18.5 13.7 8.7 53 5.1 SSW 24 33 13 18 1018.1 - 0.0
22/11:00am 19.5 14.5 9.4 52 5.3 S 26 32 14 17 1018.1 - 0.0
22/10:30am 18.2 13.2 9.5 57 4.6 SSW 26 33 14 18 1018.2 - 0.0
22/10:00am 18.0 12.5 9.1 56 4.6 S 28 37 15 20 1018.2 - 0.0
22/09:30am 17.5 12.6 9.9 61 4.0 S 26 33 14 18 1018.0 - 0.0
22/09:00am 16.3 14.1 12.1 76 2.3 S 15 19 8 10 1017.8 1017.8 0.0
22/08:30am 15.2 13.4 12.0 81 1.7 S 13 19 7 10 1017.7 - 0.0
22/08:00am 13.2 12.5 11.9 92 0.7 SSE 7 9 4 5 1017.2 - 0.0
22/07:30am 12.5 10.8 11.1 91 0.7 S 11 13 6 7 1016.8 - 0.0
22/07:00am 12.1 10.3 10.8 92 0.7 SSE 11 13 6 7 1016.3 - 0.0
22/06:30am 12.8 10.4 11.4 91 0.7 S 15 17 8 9 1015.9 - 0.0
22/06:00am 13.4 10.8 12.0 91 0.8 SSW 17 20 9 11 1015.4 1015.3 0.0
22/05:30am 14.0 11.0 12.4 90 0.9 S 20 24 11 13 1014.9 - 0.0
22/05:00am 14.4 11.7 13.0 91 0.8 SSW 19 26 10 14 1014.5 - 0.0
22/04:30am 14.4 12.9 13.1 92 0.7 S 13 15 7 8 1014.5 - 0.0
22/04:00am 14.9 12.8 13.6 92 0.7 SSW 17 20 9 11 1013.9 - 0.0
22/03:30am 15.3 13.4 14.3 94 0.6 S 17 22 9 12 1013.4 - 0.0
22/03:00am 15.8 13.6 14.5 92 0.7 SSW 19 28 10 15 1013.5 1013.4 0.0
22/02:30am 16.1 14.3 15.5 96 0.3 S 19 28 10 15 1012.9 - 0.0
22/02:00am 15.9 15.1 15.1 95 0.5 S 13 15 7 8 1012.9 - 0.0
22/01:30am 16.4 15.4 15.6 95 0.5 S 15 19 8 10 1012.5 - 0.0
22/01:00am 16.3 15.6 15.3 94 0.6 SW 13 17 7 9 1013.0 - 0.0
22/12:30am 16.9 15.2 15.8 93 0.6 WSW 19 24 10 13 1012.4 - 0.0
22/12:00am 17.1 14.4 15.6 91 0.9 SW 24 32 13 17 1012.2 1012.1 0.0
 
Date/Time
CST
Temp
°C
App
Temp
°C
Dew
Point
Rel
Hum
%
Delta-T
°C
Wind Press
QNH
hPa
Press
MSL
hPa
Rain
since 9 am
mm
Dir
 
Spd
km/h
Gust
km/h
Spd
kts
Gust
kts
21/11:43pm 18.0 14.7 16.0 88 1.2 WSW 28 44 15 24 1012.5 - 0.0
21/11:30pm 18.1 17.2 13.8 76 2.5 N 11 22 6 12 1012.3 - 0.0
21/11:00pm 17.7 15.7 15.5 87 1.3 E 20 22 11 12 1010.8 - 0.0
21/10:30pm 16.6 15.8 13.9 84 1.5 S 11 13 6 7 1011.9 - 0.0
21/10:00pm 16.5 14.7 13.4 82 1.7 S 15 17 8 9 1012.1 - 0.0
21/09:30pm 17.2 15.0 13.3 78 2.2 SSE 17 19 9 10 1011.8 - 0.0
21/09:00pm 18.6 15.5 14.5 77 2.4 SSW 24 32 13 17 1012.2 1012.1 0.0
21/08:30pm 17.9 17.0 13.8 77 2.3 N 11 13 6 7 1011.3 - 0.0
21/08:00pm 18.7 17.5 14.0 74 2.7 NE 13 17 7 9 1010.6 - 0.0
21/07:30pm 18.8 18.6 14.7 77 2.4 N 9 13 5 7 1011.1 - 0.0
21/07:00pm 19.4 19.7 14.9 75 2.6 N 7 9 4 5 1010.9 - 0.0
21/06:30pm 20.2 20.2 15.2 73 3.0 N 9 11 5 6 1010.6 - 0.0
21/06:00pm 20.5 19.4 14.4 68 3.6 NNW 13 17 7 9 1010.4 1010.3 0.0
21/05:30pm 22.4 20.8 14.0 59 4.9 NNW 15 17 8 9 1010.2 - 0.0
21/05:00pm 24.1 21.6 14.2 54 5.8 NNW 20 24 11 13 1010.0 - 0.0
21/04:30pm 24.7 21.2 13.3 49 6.6 NW 24 28 13 15 1010.1 - 0.0
21/04:00pm 25.9 20.7 12.7 44 7.7 NW 32 43 17 23 1010.2 - 0.0
21/03:44pm 26.8 21.2 12.1 40 8.5 NW 33 44 18 24 1010.1 - 0.0
21/03:30pm 27.5 19.8 10.2 34 9.7 N 41 48 22 26 1009.5 - 0.0

Other Formats:

Comma delimited format used in spreadsheet applications
http://www.bom.gov.au/fwo/IDS60801/IDS60801.95659.axf

JavaScript Object Notation format (JSON) in row-major order
http://www.bom.gov.au/fwo/IDS60801/IDS60801.95659.json